Time;durP1;ratioP1;P1;durP2;ratioP2;P2;SDS_P1;SDS_P2;PMS_P1;PMS_P2;Temp;Humidity;BMP_temperature;BMP_pressure;BME280_temperature;BME280_humidity;BME280_pressure;Samples;Min_cycle;Max_cycle;Signal;HPM_P1;HPM_P2
2023/05/04 00:00:21;;;;;;;0.80;0.80;;;;;;;2.35;94.85;99905.47;4974652;28;20048;-78
2023/05/04 00:03:07;;;;;;;0.90;0.90;;;;;;;2.34;94.77;99907.31;4977574;28;20074;-78
2023/05/04 00:05:34;;;;;;;0.80;0.80;;;;;;;2.23;94.87;99902.34;4991718;28;20050;-78
2023/05/04 00:08:20;;;;;;;0.77;0.77;;;;;;;2.19;94.81;99908.16;4992103;28;20469;-79
2023/05/04 00:11:24;;;;;;;0.80;0.80;;;;;;;2.10;94.88;99910.84;4974359;28;20046;-79
2023/05/04 00:13:52;;;;;;;0.80;0.80;;;;;;;1.95;94.83;99904.53;4992591;28;20050;-78
2023/05/04 00:16:19;;;;;;;0.80;0.80;;;;;;;1.92;95.18;99919.00;4993461;28;20846;-79
2023/05/04 00:19:09;;;;;;;0.70;0.70;;;;;;;1.87;95.18;99918.63;4957911;28;20062;-78
2023/05/04 00:27:26;;;;;;;0.80;0.80;;;;;;;1.67;95.48;99910.16;4992292;28;20525;-78
2023/05/04 00:29:53;;;;;;;0.77;0.77;;;;;;;1.65;95.92;99921.97;4991978;28;20057;-79
2023/05/04 00:32:20;;;;;;;0.80;0.80;;;;;;;1.63;96.22;99924.78;4992059;28;20085;-78
2023/05/04 00:34:48;;;;;;;0.80;0.80;;;;;;;1.63;96.25;99923.97;4974543;28;20053;-77
2023/05/04 00:37:18;;;;;;;0.90;0.90;;;;;;;1.66;96.53;99919.13;4974810;28;20053;-79
2023/05/04 00:42:37;;;;;;;0.70;0.70;;;;;;;1.67;96.73;99926.13;4971658;28;20126;-78
2023/05/04 00:48:09;;;;;;;0.90;0.90;;;;;;;1.61;96.63;99921.44;4971414;28;20058;-78
2023/05/04 00:50:55;;;;;;;0.80;0.80;;;;;;;1.58;96.89;99916.47;4953995;28;20047;-78
2023/05/04 00:56:32;;;;;;;0.80;0.80;;;;;;;1.52;96.71;99931.25;4967576;28;20055;-78
2023/05/04 00:58:59;;;;;;;0.77;0.77;;;;;;;1.48;96.86;99919.28;4953951;28;20623;-79
2023/05/04 01:01:26;;;;;;;0.80;0.80;;;;;;;1.50;96.74;99925.25;4954317;28;20076;-80
2023/05/04 01:03:54;;;;;;;0.80;0.80;;;;;;;1.52;96.47;99923.28;4970470;28;20098;-79
2023/05/04 01:06:41;;;;;;;0.80;0.80;;;;;;;1.55;96.33;99918.63;4950355;28;20050;-78
2023/05/04 01:09:26;;;;;;;0.90;0.90;;;;;;;1.54;95.43;99920.44;4968787;28;20058;-76
2023/05/04 01:12:06;;;;;;;0.80;0.80;;;;;;;1.55;94.88;99924.78;4963925;28;20097;-78
2023/05/04 01:14:34;;;;;;;0.80;0.80;;;;;;;1.57;94.21;99924.59;4971810;28;20058;-78
2023/05/04 01:17:04;;;;;;;0.90;0.90;;;;;;;1.55;93.47;99927.44;4965482;28;20529;-79
2023/05/04 01:19:32;;;;;;;0.80;0.80;;;;;;;1.61;92.46;99933.94;4991479;28;20050;-79
2023/05/04 01:22:02;;;;;;;0.80;0.80;;;;;;;1.67;90.84;99925.28;4958405;28;20046;-78
2023/05/04 01:24:30;;;;;;;0.80;0.80;;;;;;;1.62;89.71;99931.13;4973671;28;20505;-79
2023/05/04 01:27:03;;;;;;;0.80;0.80;;;;;;;1.56;89.69;99934.41;4974197;28;20074;-79
2023/05/04 01:29:42;;;;;;;0.90;0.90;;;;;;;1.54;89.07;99939.06;4991297;28;20073;-79
2023/05/04 01:32:11;;;;;;;0.80;0.80;;;;;;;1.50;88.61;99941.22;4974009;28;20046;-79
2023/05/04 01:34:39;;;;;;;0.90;0.90;;;;;;;1.47;88.86;99943.41;4990896;28;20509;-79
2023/05/04 01:37:07;;;;;;;0.85;0.85;;;;;;;1.36;89.01;99935.69;4957746;28;20050;-79
2023/05/04 01:39:35;;;;;;;0.80;0.80;;;;;;;1.22;89.61;99940.66;4970045;28;20057;-79
2023/05/04 01:42:02;;;;;;;0.80;0.80;;;;;;;1.12;90.38;99945.28;4954126;28;20050;-78
2023/05/04 01:44:29;;;;;;;0.73;0.73;;;;;;;1.03;91.04;99940.91;4971685;28;20054;-78
2023/05/04 01:46:56;;;;;;;0.90;0.90;;;;;;;1.01;91.60;99948.19;4971595;28;20047;-78
2023/05/04 01:49:24;;;;;;;0.90;0.90;;;;;;;1.04;92.14;99946.06;4971831;28;20421;-79
2023/05/04 01:51:51;;;;;;;0.88;0.88;;;;;;;1.01;92.44;99957.03;4971569;28;20046;-78
2023/05/04 01:54:18;;;;;;;0.80;0.80;;;;;;;1.02;92.56;99947.22;4971415;28;20478;-78
2023/05/04 01:56:45;;;;;;;0.90;0.90;;;;;;;1.02;92.67;99953.38;4976806;28;20047;-78
2023/05/04 01:59:12;;;;;;;0.82;0.82;;;;;;;1.04;92.57;99959.38;4990943;28;20082;-79
2023/05/04 02:01:41;;;;;;;0.90;0.90;;;;;;;1.01;92.86;99956.19;4990687;28;20049;-79
2023/05/04 02:04:09;;;;;;;0.80;0.80;;;;;;;0.98;92.85;99960.00;4956600;28;20535;-79
2023/05/04 02:06:38;;;;;;;0.80;0.80;;;;;;;1.04;93.26;99961.19;4973499;28;20080;-79
2023/05/04 02:09:05;;;;;;;0.90;0.90;;;;;;;0.99;93.03;99964.34;4973327;28;20058;-79
2023/05/04 02:11:32;;;;;;;0.90;0.90;;;;;;;1.02;93.12;99968.50;4990506;28;20061;-79
2023/05/04 02:13:59;;;;;;;0.90;0.90;;;;;;;1.01;93.26;99966.81;4990409;28;20057;-79
2023/05/04 02:16:26;;;;;;;0.90;0.90;;;;;;;1.03;93.50;99965.66;4972700;28;20050;-79
2023/05/04 02:18:53;;;;;;;0.82;0.82;;;;;;;1.07;93.35;99966.19;4973356;28;20433;-77
2023/05/04 02:21:20;;;;;;;0.90;0.90;;;;;;;1.11;93.21;99967.50;4973244;28;20496;-79
2023/05/04 02:23:47;;;;;;;0.90;0.90;;;;;;;1.10;93.36;99970.34;4990632;28;20046;-80
2023/05/04 02:26:25;;;;;;;0.80;0.80;;;;;;;1.15;93.39;99968.88;4957273;28;20125;-78
2023/05/04 02:28:52;;;;;;;0.80;0.80;;;;;;;1.22;93.26;99971.75;4969918;28;20082;-79
2023/05/04 02:31:20;;;;;;;0.80;0.80;;;;;;;1.33;92.72;99966.13;4954112;28;20518;-78
2023/05/04 02:33:49;;;;;;;0.80;0.80;;;;;;;1.46;91.67;99971.78;4971259;28;20051;-79
2023/05/04 02:36:16;;;;;;;0.90;0.90;;;;;;;1.59;90.57;99976.66;4954100;28;20508;-78
2023/05/04 02:38:43;;;;;;;0.90;0.90;;;;;;;1.65;89.69;99970.69;4954856;28;20133;-78
2023/05/04 02:41:10;;;;;;;0.80;0.80;;;;;;;1.67;89.56;99963.38;4953828;28;20058;-79
2023/05/04 02:43:39;;;;;;;0.85;0.85;;;;;;;1.71;89.71;99970.03;4954667;28;20486;-79
2023/05/04 02:46:06;;;;;;;0.90;0.90;;;;;;;1.82;89.16;99978.69;4971320;28;20055;-79
2023/05/04 02:48:36;;;;;;;0.90;0.90;;;;;;;1.89;89.20;99974.38;4971078;28;20046;-79
2023/05/04 02:51:05;;;;;;;0.80;0.80;;;;;;;1.90;88.89;99978.69;4971115;28;20448;-79
2023/05/04 02:53:34;;;;;;;0.90;0.90;;;;;;;1.92;89.18;99987.38;4953432;28;20130;-79
2023/05/04 02:56:03;;;;;;;0.80;0.80;;;;;;;1.93;89.34;99989.03;4953453;28;20047;-79
2023/05/04 02:58:30;;;;;;;0.80;0.80;;;;;;;1.96;89.22;99991.38;4970830;28;20058;-79
2023/05/04 03:00:57;;;;;;;0.90;0.90;;;;;;;2.00;89.47;99987.41;4958619;28;20056;-79
2023/05/04 03:03:25;;;;;;;0.88;0.88;;;;;;;2.12;88.91;99995.88;4990180;28;20130;-79
2023/05/04 03:05:52;;;;;;;0.90;0.90;;;;;;;2.17;88.67;99986.38;4990215;28;20421;-80
2023/05/04 03:08:19;;;;;;;0.90;0.90;;;;;;;2.30;88.41;100001.03;4972931;28;20051;-79
2023/05/04 03:10:49;;;;;;;0.90;0.90;;;;;;;2.36;87.88;100001.22;4972434;28;20052;-79
2023/05/04 03:13:16;;;;;;;0.90;0.90;;;;;;;2.39;87.54;100000.03;4990013;28;20142;-78
2023/05/04 03:15:46;;;;;;;0.85;0.85;;;;;;;2.53;87.03;100009.19;4974471;28;20049;-78
2023/05/04 03:18:13;;;;;;;0.90;0.90;;;;;;;2.61;86.72;100003.88;4960470;28;20420;-79
2023/05/04 03:20:44;;;;;;;0.90;0.90;;;;;;;2.73;86.27;100007.81;4959911;28;20053;-78
2023/05/04 03:23:17;;;;;;;0.90;0.90;;;;;;;2.84;85.27;100014.66;4976247;28;20047;-78
2023/05/04 03:25:47;;;;;;;0.80;0.80;;;;;;;2.93;84.59;100013.63;4975880;28;20121;-79
2023/05/04 03:28:15;;;;;;;0.70;0.70;;;;;;;3.00;83.65;100014.59;4975942;28;20050;-78
2023/05/04 03:30:42;;;;;;;0.80;0.80;;;;;;;3.05;82.91;100008.75;4992979;28;20571;-79
2023/05/04 03:33:10;;;;;;;0.90;0.90;;;;;;;3.19;82.40;100013.41;4960120;28;20137;-79
2023/05/04 03:35:37;;;;;;;0.70;0.70;;;;;;;3.31;82.30;100015.69;4975418;28;20058;-79
2023/05/04 03:38:09;;;;;;;0.80;0.80;;;;;;;3.40;81.90;100020.81;4959515;28;20047;-79
2023/05/04 03:40:36;;;;;;;0.80;0.80;;;;;;;3.49;81.07;100018.94;4940871;28;20105;-81
2023/05/04 03:43:04;;;;;;;0.80;0.80;;;;;;;3.63;80.03;100023.53;4956094;28;20047;-80
2023/05/04 03:45:45;;;;;;;0.80;0.80;;;;;;;3.78;79.37;100022.81;4940822;28;20528;-78
2023/05/04 03:48:12;;;;;;;0.80;0.80;;;;;;;3.90;78.92;100026.75;4956301;28;20101;-78
2023/05/04 03:50:39;;;;;;;0.80;0.80;;;;;;;4.03;78.20;100021.66;4956104;28;20054;-78
2023/05/04 03:53:07;;;;;;;0.80;0.80;;;;;;;4.18;77.54;100023.53;4973320;28;20057;-79
2023/05/04 03:55:34;;;;;;;0.80;0.80;;;;;;;4.25;76.53;100017.28;4955911;28;20047;-80
2023/05/04 03:58:04;;;;;;;0.80;0.80;;;;;;;4.45;75.44;100035.53;4979046;28;20050;-80
2023/05/04 04:00:31;;;;;;;0.80;0.80;;;;;;;4.56;75.20;100043.13;4974972;28;20069;-80
2023/05/04 04:03:07;;;;;;;0.90;0.90;;;;;;;4.67;74.84;100029.31;4975291;28;20061;-79
2023/05/04 04:05:36;;;;;;;0.70;0.70;;;;;;;4.85;73.92;100028.16;4991967;28;20054;-79
2023/05/04 04:08:04;;;;;;;0.80;0.80;;;;;;;5.02;70.64;100026.16;4948290;28;20058;-79
2023/05/04 04:10:31;;;;;;;0.80;0.80;;;;;;;5.18;69.16;100032.16;4991775;28;20050;-79
2023/05/04 04:12:58;;;;;;;0.80;0.80;;;;;;;5.30;68.09;100035.19;4992275;28;20046;-78
2023/05/04 04:15:27;;;;;;;0.70;0.70;;;;;;;5.40;66.96;100037.59;4991788;28;20077;-79
2023/05/04 04:17:59;;;;;;;0.80;0.80;;;;;;;5.38;66.17;100020.88;4958456;28;20129;-80
2023/05/04 04:20:26;;;;;;;0.80;0.80;;;;;;;5.51;64.47;100029.09;4974368;28;20047;-79
2023/05/04 04:22:53;;;;;;;0.70;0.70;;;;;;;5.75;63.41;100045.88;4992334;28;20100;-78
2023/05/04 04:25:21;;;;;;;0.80;0.80;;;;;;;5.83;62.44;100038.56;4991802;28;20515;-78
2023/05/04 04:27:48;;;;;;;0.80;0.80;;;;;;;5.99;60.85;100045.56;4974229;28;20053;-78
2023/05/04 04:30:15;;;;;;;0.80;0.80;;;;;;;6.07;59.25;100037.38;4991482;28;20109;-78
2023/05/04 04:32:42;;;;;;;0.70;0.70;;;;;;;6.19;59.13;100044.94;4991765;28;20528;-79
2023/05/04 04:35:10;;;;;;;0.70;0.70;;;;;;;6.27;58.74;100048.31;4991882;28;20422;-78
2023/05/04 04:37:37;;;;;;;0.60;0.60;;;;;;;6.33;58.84;100045.91;4991575;28;20093;-78
2023/05/04 04:40:07;;;;;;;0.70;0.70;;;;;;;6.48;58.33;100055.56;4991370;28;20145;-79
2023/05/04 04:42:35;;;;;;;0.80;0.80;;;;;;;6.57;58.52;100048.19;4991276;28;20129;-78
2023/05/04 04:45:05;;;;;;;0.70;0.70;;;;;;;6.66;58.10;100052.41;4991454;28;20137;-79
2023/05/04 04:47:34;;;;;;;0.70;0.70;;;;;;;6.78;55.82;100052.69;4988857;28;20054;-78
2023/05/04 04:50:04;;;;;;;0.70;0.70;;;;;;;6.82;54.93;100051.28;4989392;28;20050;-78
2023/05/04 04:52:32;;;;;;;0.70;0.70;;;;;;;6.95;54.66;100050.56;4990894;28;20057;-78
2023/05/04 04:55:03;;;;;;;0.70;0.70;;;;;;;7.10;54.31;100063.88;4971495;28;20078;-79
2023/05/04 04:57:30;;;;;;;0.70;0.70;;;;;;;7.19;54.21;100054.66;4980000;28;20058;-79
2023/05/04 04:59:58;;;;;;;0.70;0.70;;;;;;;7.24;53.78;100057.59;4989077;28;20062;-79
2023/05/04 05:02:26;;;;;;;0.75;0.75;;;;;;;7.27;53.30;100053.69;4964322;28;20051;-78
2023/05/04 05:04:54;;;;;;;0.70;0.70;;;;;;;7.31;53.09;100053.06;4980426;28;20058;-79
2023/05/04 05:07:21;;;;;;;0.70;0.70;;;;;;;7.47;53.56;100059.13;4955972;28;20536;-79
2023/05/04 05:09:48;;;;;;;0.70;0.70;;;;;;;7.46;53.25;100052.94;4979253;28;20055;-79
2023/05/04 05:12:16;;;;;;;0.70;0.70;;;;;;;7.56;51.90;100058.78;4980135;28;20135;-79
2023/05/04 05:14:46;;;;;;;0.70;0.70;;;;;;;7.64;50.90;100057.78;4940010;28;20679;-79
2023/05/04 05:17:13;;;;;;;0.70;0.70;;;;;;;7.75;51.02;100059.91;4976703;28;20047;-79
2023/05/04 05:19:58;;;;;;;0.70;0.70;;;;;;;7.89;50.47;100063.47;4980063;28;20249;-79
2023/05/04 05:22:26;;;;;;;0.70;0.70;;;;;;;7.93;50.28;100067.44;4991004;28;20046;-78
2023/05/04 05:24:53;;;;;;;0.70;0.70;;;;;;;7.96;50.00;100058.13;4969274;28;20145;-80
2023/05/04 05:27:20;;;;;;;0.70;0.70;;;;;;;7.99;47.74;100063.09;4979958;28;20046;-79
2023/05/04 05:29:47;;;;;;;0.60;0.60;;;;;;;8.02;46.98;100060.00;4964651;28;20061;-81
2023/05/04 05:32:17;;;;;;;0.68;0.68;;;;;;;8.08;46.48;100063.72;4990894;28;20089;-79
2023/05/04 05:34:45;;;;;;;0.70;0.70;;;;;;;8.23;46.73;100067.94;4988768;28;20112;-80
2023/05/04 05:37:13;;;;;;;0.70;0.70;;;;;;;8.28;46.13;100061.94;4970925;28;20142;-79
2023/05/04 05:39:40;;;;;;;0.70;0.70;;;;;;;8.22;45.77;100047.44;4981884;28;20054;-80
2023/05/04 05:42:07;;;;;;;0.60;0.60;;;;;;;8.33;46.28;100064.00;4981389;28;20054;-80
2023/05/04 05:44:37;;;;;;;0.60;0.60;;;;;;;8.62;46.70;100068.22;4971769;28;20101;-79
2023/05/04 05:47:05;;;;;;;0.60;0.60;;;;;;;8.66;46.75;100056.84;4954566;28;20149;-79
2023/05/04 05:49:32;;;;;;;0.70;0.70;;;;;;;8.80;46.44;100065.75;4973480;28;20058;-79
2023/05/04 05:52:04;;;;;;;0.60;0.60;;;;;;;8.85;45.34;100059.75;4962059;28;20422;-80
2023/05/04 05:54:33;;;;;;;0.60;0.60;;;;;;;8.79;44.31;100049.81;4956352;28;20081;-79
2023/05/04 05:57:03;;;;;;;0.60;0.60;;;;;;;8.82;44.51;100055.59;4969443;28;20484;-79
2023/05/04 05:59:30;;;;;;;0.60;0.60;;;;;;;8.91;44.20;100064.28;4953731;28;20047;-78
2023/05/04 06:01:57;;;;;;;0.60;0.60;;;;;;;8.99;44.34;100066.78;4956534;28;20421;-78
2023/05/04 06:04:24;;;;;;;0.60;0.60;;;;;;;9.11;44.04;100064.28;4988755;28;20118;-78
2023/05/04 06:06:51;;;;;;;0.60;0.60;;;;;;;9.20;44.06;100063.03;4970715;28;20051;-79
2023/05/04 06:09:19;;;;;;;0.68;0.68;;;;;;;9.16;43.41;100058.28;4937988;28;20050;-78
2023/05/04 06:11:47;;;;;;;0.60;0.60;;;;;;;9.24;43.11;100066.13;4973824;28;20090;-80
2023/05/04 06:14:14;;;;;;;0.60;0.60;;;;;;;9.21;41.95;100050.38;4968333;28;20520;-80
2023/05/04 06:16:44;;;;;;;0.60;0.60;;;;;;;9.07;40.84;100028.88;4954843;28;20051;-80
2023/05/04 06:19:12;;;;;;;0.63;0.63;;;;;;;9.32;39.21;100058.66;4971106;28;20548;-79
2023/05/04 06:21:39;;;;;;;0.60;0.60;;;;;;;9.31;40.06;100056.16;4956829;28;20046;-79
2023/05/04 06:24:06;;;;;;;0.68;0.68;;;;;;;9.32;39.16;100050.59;4966349;28;20042;-79
2023/05/04 06:26:33;;;;;;;0.60;0.60;;;;;;;9.39;39.07;100049.72;4972676;28;20137;-80
2023/05/04 06:29:00;;;;;;;0.60;0.60;;;;;;;9.39;39.69;100055.13;4990308;28;20501;-80
2023/05/04 06:31:30;;;;;;;0.60;0.60;;;;;;;9.36;40.95;100045.59;4972547;28;20061;-80
2023/05/04 06:33:57;;;;;;;0.60;0.60;;;;;;;9.43;40.88;100054.47;4984299;28;20062;-79
2023/05/04 06:36:27;;;;;;;0.70;0.70;;;;;;;9.46;40.30;100053.22;4977827;28;20142;-79
2023/05/04 06:38:56;;;;;;;0.70;0.70;;;;;;;9.41;41.35;100035.00;4970372;28;20051;-79
2023/05/04 06:41:24;;;;;;;0.60;0.60;;;;;;;9.62;41.77;100051.94;4970810;28;20145;-78
2023/05/04 06:43:54;;;;;;;0.60;0.60;;;;;;;9.75;42.03;100054.59;4981467;28;20112;-79
2023/05/04 06:46:24;;;;;;;0.60;0.60;;;;;;;9.93;42.22;100045.81;4990401;28;20078;-79
2023/05/04 06:49:11;;;;;;;0.60;0.60;;;;;;;10.06;40.19;100051.13;4982826;28;20124;-79
2023/05/04 06:51:38;;;;;;;0.60;0.60;;;;;;;9.95;37.86;100039.16;4983596;28;20146;-79
2023/05/04 06:54:31;;;;;;;0.60;0.60;;;;;;;10.11;38.88;100050.50;4984943;28;20069;-79
2023/05/04 06:57:23;;;;;;;0.60;0.60;;;;;;;10.21;37.88;100040.06;4993504;28;20378;-80
2023/05/04 06:59:51;;;;;;;0.60;0.60;;;;;;;10.31;38.27;100045.84;4991818;28;20137;-79
2023/05/04 07:02:18;;;;;;;0.60;0.60;;;;;;;10.54;39.22;100044.44;4966376;28;20051;-79
2023/05/04 07:04:45;;;;;;;0.60;0.60;;;;;;;10.68;37.89;100037.88;4973933;28;20047;-78
2023/05/04 07:07:12;;;;;;;0.70;0.70;;;;;;;10.63;36.72;100043.09;4974383;28;20089;-79
2023/05/04 07:09:40;;;;;;;0.60;0.60;;;;;;;10.53;36.27;100027.44;4973985;28;20051;-79
2023/05/04 07:12:07;;;;;;;0.63;0.63;;;;;;;10.62;36.81;100042.28;4979156;28;20058;-78
2023/05/04 07:14:34;;;;;;;0.60;0.60;;;;;;;10.67;38.01;100030.84;4981956;28;20074;-78
2023/05/04 07:17:02;;;;;;;0.60;0.60;;;;;;;10.61;37.28;100031.72;4956453;28;20058;-78
2023/05/04 07:19:31;;;;;;;0.60;0.60;;;;;;;10.67;37.59;100033.53;4973499;28;20046;-79
2023/05/04 07:21:59;;;;;;;0.60;0.60;;;;;;;10.73;37.62;100023.72;4976235;28;20050;-78
2023/05/04 07:24:30;;;;;;;0.65;0.65;;;;;;;11.00;38.61;100033.25;4984292;28;20050;-79
2023/05/04 07:26:57;;;;;;;0.63;0.63;;;;;;;11.19;38.52;100030.56;4975425;28;20087;-79
2023/05/04 07:29:25;;;;;;;0.60;0.60;;;;;;;11.41;38.06;100033.66;4993191;28;20050;-78
2023/05/04 07:31:52;;;;;;;0.60;0.60;;;;;;;11.52;36.97;100019.41;4967833;28;20050;-77
2023/05/04 07:34:19;;;;;;;0.70;0.70;;;;;;;11.41;36.80;100036.38;4965167;28;20065;-80
2023/05/04 07:36:51;;;;;;;0.70;0.70;;;;;;;11.28;37.28;100019.25;4973926;28;20571;-79
2023/05/04 07:39:18;;;;;;;0.70;0.70;;;;;;;11.40;36.98;100015.81;4992245;28;20050;-80
2023/05/04 07:41:50;;;;;;;0.70;0.70;;;;;;;11.49;36.15;100014.44;4992585;28;20054;-79
2023/05/04 07:44:17;;;;;;;0.70;0.70;;;;;;;11.60;36.48;100019.09;4992846;28;20054;-80
2023/05/04 07:46:44;;;;;;;0.75;0.75;;;;;;;11.94;36.11;100016.81;4992692;28;20061;-79
2023/05/04 07:49:11;;;;;;;0.70;0.70;;;;;;;12.15;35.40;100023.59;4993120;28;20074;-80
2023/05/04 07:51:42;;;;;;;0.60;0.60;;;;;;;11.61;34.71;99992.88;4992139;28;20129;-79
2023/05/04 07:54:09;;;;;;;0.70;0.70;;;;;;;11.58;35.59;100007.69;4975497;28;20572;-79
2023/05/04 07:56:36;;;;;;;0.80;0.80;;;;;;;12.11;35.66;100011.59;4992314;28;20046;-80
2023/05/04 07:59:03;;;;;;;0.80;0.80;;;;;;;12.25;33.71;100013.03;4974863;28;20069;-80
2023/05/04 08:01:31;;;;;;;0.90;0.90;;;;;;;12.01;33.99;100001.31;4991740;28;20101;-80
2023/05/04 08:03:59;;;;;;;0.80;0.80;;;;;;;12.07;34.04;100000.41;4992350;28;20046;-80
2023/05/04 08:06:26;;;;;;;0.80;0.80;;;;;;;11.78;33.79;100006.63;4959245;28;20078;-79
2023/05/04 08:08:53;;;;;;;0.90;0.90;;;;;;;11.92;33.80;100014.38;4992377;28;20468;-79
2023/05/04 08:11:21;;;;;;;0.80;0.80;;;;;;;12.00;32.65;100002.41;4975035;28;20050;-79
2023/05/04 08:13:49;;;;;;;0.90;0.90;;;;;;;12.16;32.37;99997.38;4974586;28;20054;-80
2023/05/04 08:16:16;;;;;;;0.80;0.80;;;;;;;12.22;32.61;99999.16;4992155;28;20077;-80
2023/05/04 08:18:43;;;;;;;0.90;0.90;;;;;;;12.43;32.11;100011.31;4991959;28;20074;-79
2023/05/04 08:21:10;;;;;;;0.90;0.90;;;;;;;13.11;31.45;99991.00;4991686;28;20512;-80
2023/05/04 08:23:37;;;;;;;0.80;0.80;;;;;;;13.82;31.26;99988.97;4991625;28;20420;-79
2023/05/04 08:26:04;;;;;;;0.80;0.80;;;;;;;14.54;31.09;99991.13;4974574;28;20050;-79
2023/05/04 08:28:39;;;;;;;0.80;0.80;;;;;;;14.26;29.53;99998.22;4991875;28;20524;-80
2023/05/04 08:31:06;;;;;;;0.80;0.80;;;;;;;13.70;29.79;99990.91;4992145;28;20069;-80
2023/05/04 08:33:34;;;;;;;0.82;0.82;;;;;;;13.72;30.33;99983.34;4974415;28;20513;-79
2023/05/04 08:36:03;;;;;;;0.85;0.85;;;;;;;14.52;30.07;99985.09;4991823;28;20057;-80
2023/05/04 08:38:30;;;;;;;0.80;0.80;;;;;;;15.26;29.48;99975.88;4991520;28;20053;-81
2023/05/04 08:41:03;;;;;;;0.73;0.73;;;;;;;15.72;29.24;99971.88;4974925;28;20057;-80
2023/05/04 08:43:34;;;;;;;0.70;0.70;;;;;;;15.89;28.18;99977.22;4991832;28;20464;-80
2023/05/04 08:46:05;;;;;;;0.70;0.70;;;;;;;16.06;27.62;99987.19;4991824;28;20056;-81
2023/05/04 08:48:33;;;;;;;0.70;0.70;;;;;;;15.88;27.42;99974.75;4991531;28;20101;-80
2023/05/04 08:51:05;;;;;;;0.80;0.80;;;;;;;15.48;28.52;99970.47;4991039;28;20064;-80
2023/05/04 08:53:34;;;;;;;0.88;0.88;;;;;;;15.32;28.30;99966.72;4991295;28;20516;-80
2023/05/04 08:56:03;;;;;;;0.80;0.80;;;;;;;15.39;28.31;99976.34;4991749;28;20129;-80
2023/05/04 08:58:30;;;;;;;0.80;0.80;;;;;;;15.74;27.58;99972.41;4970011;28;20054;-80
2023/05/04 09:00:59;;;;;;;0.80;0.80;;;;;;;16.33;26.97;99959.94;4970648;28;20046;-79
2023/05/04 09:03:28;;;;;;;0.90;0.90;;;;;;;16.90;26.51;99960.13;4970642;28;20465;-79
2023/05/04 09:05:56;;;;;;;0.90;0.90;;;;;;;17.45;25.69;99960.69;4970863;28;20054;-80
2023/05/04 09:08:23;;;;;;;0.80;0.80;;;;;;;17.49;26.20;99963.69;4972249;28;20060;-80
2023/05/04 09:10:51;;;;;;;0.80;0.80;;;;;;;17.32;25.64;99953.81;4954651;28;20095;-79
2023/05/04 09:13:18;;;;;;;0.90;0.90;;;;;;;17.17;26.24;99963.84;4971206;28;20047;-80
2023/05/04 09:15:55;;;;;;;0.80;0.80;;;;;;;17.50;25.87;99957.16;4970127;28;20592;-81
2023/05/04 09:18:23;;;;;;;0.90;0.90;;;;;;;17.80;25.37;99936.53;4971911;28;20177;-80
2023/05/04 09:20:54;;;;;;;0.90;0.90;;;;;;;17.72;25.04;99957.78;4971577;28;20078;-79
2023/05/04 09:23:21;;;;;;;0.90;0.90;;;;;;;17.24;25.59;99948.88;4971284;28;20493;-80
2023/05/04 09:25:55;;;;;;;0.90;0.90;;;;;;;18.15;25.06;99949.41;4969805;28;20145;-80
2023/05/04 09:28:40;;;;;;;0.90;0.90;;;;;;;19.04;24.44;99950.78;4971979;28;20418;-80
2023/05/04 09:31:08;;;;;;;0.70;0.70;;;;;;;18.51;24.44;99952.16;4971289;28;20059;-80
2023/05/04 09:33:35;;;;;;;0.80;0.80;;;;;;;18.17;24.25;99945.31;4970111;28;20090;-81
2023/05/04 09:36:14;;;;;;;0.90;0.90;;;;;;;17.91;24.52;99944.47;4970284;28;20047;-80
2023/05/04 09:38:41;;;;;;;0.60;0.60;;;;;;;18.34;24.41;99947.81;4967011;28;20085;-80
2023/05/04 09:41:09;;;;;;;0.40;0.40;;;;;;;17.37;25.44;99933.94;4951404;29;20058;-80
2023/05/04 09:43:40;;;;;;;0.50;0.50;;;;;;;16.63;26.31;99945.72;4979630;28;20063;-80
2023/05/04 09:46:18;;;;;;;0.82;0.82;;;;;;;17.71;25.36;99938.94;4969968;28;20105;-80
2023/05/04 09:48:54;;;;;;;0.90;0.90;;;;;;;18.44;24.66;99929.78;4970959;28;20621;-80
2023/05/04 09:51:24;;;;;;;0.90;0.90;;;;;;;18.44;23.94;99938.78;4969862;28;20552;-79
2023/05/04 09:53:52;;;;;;;0.90;0.90;;;;;;;19.05;23.90;99937.91;4969745;28;20101;-80
2023/05/04 09:56:34;;;;;;;0.90;0.90;;;;;;;18.84;22.61;99937.16;4971262;28;20086;-79
2023/05/04 09:59:04;;;;;;;0.90;0.90;;;;;;;18.32;23.03;99930.03;4969724;28;20051;-79
2023/05/04 10:01:32;;;;;;;0.90;0.90;;;;;;;18.29;22.92;99938.78;4970932;28;20046;-80
2023/05/04 10:04:00;;;;;;;0.90;0.90;;;;;;;19.12;22.53;99929.41;4970018;28;20047;-80
2023/05/04 10:06:29;;;;;;;0.90;0.90;;;;;;;20.59;21.59;99915.13;4954117;28;20047;-81
2023/05/04 10:08:58;;;;;;;0.65;0.65;;;;;;;21.68;21.31;99919.09;4969771;28;20134;-80
2023/05/04 10:11:25;;;;;;;0.80;0.80;;;;;;;20.51;21.84;99916.53;4970974;28;20051;-80
2023/05/04 10:13:58;;;;;;;0.40;0.40;;;;;;;19.73;21.85;99929.16;4970933;28;20465;-80
2023/05/04 10:16:35;;;;;;;0.60;0.60;;;;;;;18.28;23.04;99926.22;4970503;28;20050;-80
2023/05/04 10:19:06;;;;;;;0.90;0.90;;;;;;;19.28;22.80;99922.78;4953796;28;20517;-80
2023/05/04 10:21:46;;;;;;;0.90;0.90;;;;;;;20.99;22.52;99906.47;4970200;28;20461;-80
2023/05/04 10:24:29;;;;;;;0.82;0.82;;;;;;;22.05;21.07;99902.59;4971572;28;20113;-81
2023/05/04 10:27:15;;;;;;;0.50;0.50;;;;;;;20.51;21.85;99905.56;4974929;28;20117;-79
2023/05/04 10:29:48;;;;;;;0.80;0.80;;;;;;;20.25;22.18;99903.03;4989693;28;20130;-80
2023/05/04 10:32:22;;;;;;;0.43;0.43;;;;;;;21.62;21.11;99902.69;4973674;28;20077;-80
2023/05/04 10:35:03;;;;;;;0.30;0.30;;;;;;;20.64;21.11;99902.19;4974788;28;20073;-80
2023/05/04 10:37:31;;;;;;;0.50;0.50;;;;;;;19.12;22.06;99913.00;4973413;28;20054;-80
2023/05/04 10:39:58;;;;;;;0.40;0.40;;;;;;;18.97;22.23;99901.00;4974277;28;20141;-81
2023/05/04 10:42:26;;;;;;;0.40;0.40;;;;;;;17.52;23.23;99908.56;4974518;28;20049;-80
2023/05/04 10:44:55;;;;;;;0.90;0.90;;;;;;;17.47;23.40;99906.69;4974105;28;20510;-81
2023/05/04 10:47:28;;;;;;;1.00;1.00;;;;;;;19.54;21.30;99900.75;4974063;28;20051;-81
2023/05/04 10:50:03;;;;;;;0.90;0.90;;;;;;;21.52;19.56;99893.75;4974322;28;20169;-79
2023/05/04 10:52:32;;;;;;;0.90;0.90;;;;;;;22.45;19.87;99874.75;4974023;28;20055;-79
2023/05/04 10:55:01;;;;;;;0.90;0.90;;;;;;;23.35;19.40;99881.53;4971580;28;20600;-79
2023/05/04 10:57:30;;;;;;;0.80;0.80;;;;;;;24.34;18.23;99878.16;4967006;28;20054;-80
2023/05/04 10:59:58;;;;;;;0.70;0.70;;;;;;;25.01;18.31;99875.25;4989079;28;20109;-79
2023/05/04 11:02:26;;;;;;;0.80;0.80;;;;;;;24.18;16.04;99889.59;4993464;28;20480;-80
2023/05/04 11:05:07;;;;;;;0.90;0.90;;;;;;;23.00;17.67;99879.53;4960220;28;20046;-80
2023/05/04 11:07:36;;;;;;;0.30;0.30;;;;;;;22.49;17.67;99878.53;4985207;28;20050;-79
2023/05/04 11:10:24;;;;;;;0.30;0.30;;;;;;;19.94;20.01;99879.72;4988764;28;20081;-78
2023/05/04 11:12:54;;;;;;;0.30;0.30;;;;;;;18.39;21.61;99878.69;4983995;28;20141;-78
2023/05/04 11:15:21;;;;;;;1.00;1.00;;;;;;;18.59;21.83;99884.09;4992274;28;20046;-79
2023/05/04 11:17:51;;;;;;;0.90;0.90;;;;;;;19.80;20.92;99879.53;4993458;28;20097;-77
2023/05/04 11:20:24;;;;;;;0.40;0.40;;;;;;;19.02;21.10;99870.91;4993460;28;20046;-77
2023/05/04 11:22:53;;;;;;;0.40;0.40;;;;;;;17.14;22.78;99877.88;4966743;28;20480;-77
2023/05/04 11:25:27;;;;;;;0.40;0.40;;;;;;;15.97;24.19;99870.56;4944151;28;20082;-77
2023/05/04 11:27:55;;;;;;;0.40;0.40;;;;;;;15.92;24.05;99867.00;4983095;28;20150;-78
2023/05/04 11:30:33;;;;;;;0.50;0.50;;;;;;;16.45;23.89;99862.50;4983389;28;20050;-79
2023/05/04 11:33:02;;;;;;;0.50;0.50;;;;;;;16.78;24.40;99846.91;4967021;28;20137;-78
2023/05/04 11:35:33;;;;;;;0.50;0.50;;;;;;;17.16;23.95;99858.53;4968051;28;20058;-79
2023/05/04 11:38:00;;;;;;;0.90;0.90;;;;;;;19.32;21.64;99858.19;4975777;28;20485;-78
2023/05/04 11:40:27;;;;;;;0.80;0.80;;;;;;;20.40;20.44;99849.19;4992947;28;20054;-78
2023/05/04 11:42:55;;;;;;;0.80;0.80;;;;;;;21.52;19.85;99849.81;4992553;28;20046;-78
2023/05/04 11:45:31;;;;;;;0.75;0.75;;;;;;;22.91;18.75;99849.94;4993131;28;20089;-78
2023/05/04 11:48:00;;;;;;;0.63;0.63;;;;;;;23.14;17.63;99853.63;4975442;28;20050;-78
2023/05/04 11:50:28;;;;;;;0.40;0.40;;;;;;;21.21;19.45;99841.97;4991755;28;20050;-78
2023/05/04 11:53:08;;;;;;;0.30;0.30;;;;;;;19.76;20.66;99845.63;4992621;28;20092;-79
2023/05/04 11:55:39;;;;;;;0.40;0.40;;;;;;;18.84;21.72;99838.69;4992640;28;20061;-79
2023/05/04 11:58:10;;;;;;;0.40;0.40;;;;;;;18.29;21.72;99845.91;4991857;28;20124;-79
2023/05/04 12:00:42;;;;;;;0.40;0.40;;;;;;;17.95;22.29;99847.28;4976570;28;20520;-78